sensor_id;sensor_type;location;lat;lon;timestamp;P1;durP1;ratioP1;P2;durP2;ratioP2
74920;SDS011;63483;47.384;8.860;2023-07-29T00:01:34;3.05;;;1.42;;
74920;SDS011;63483;47.384;8.860;2023-07-29T00:03:59;3.17;;;1.53;;
74920;SDS011;63483;47.384;8.860;2023-07-29T00:06:25;4.72;;;1.60;;
74920;SDS011;63483;47.384;8.860;2023-07-29T00:08:51;4.90;;;1.97;;
74920;SDS011;63483;47.384;8.860;2023-07-29T00:11:17;2.30;;;1.73;;
74920;SDS011;63483;47.384;8.860;2023-07-29T00:13:42;6.05;;;1.15;;
74920;SDS011;63483;47.384;8.860;2023-07-29T00:16:07;3.13;;;1.60;;
74920;SDS011;63483;47.384;8.860;2023-07-29T00:18:33;4.30;;;1.70;;
74920;SDS011;63483;47.384;8.860;2023-07-29T00:20:58;3.47;;;1.60;;
74920;SDS011;63483;47.384;8.860;2023-07-29T00:23:23;4.30;;;1.80;;
74920;SDS011;63483;47.384;8.860;2023-07-29T00:25:49;3.60;;;1.87;;
74920;SDS011;63483;47.384;8.860;2023-07-29T00:28:14;2.60;;;1.73;;
74920;SDS011;63483;47.384;8.860;2023-07-29T00:30:40;3.87;;;1.63;;
74920;SDS011;63483;47.384;8.860;2023-07-29T00:33:05;2.33;;;1.20;;
74920;SDS011;63483;47.384;8.860;2023-07-29T00:35:30;4.80;;;1.63;;
74920;SDS011;63483;47.384;8.860;2023-07-29T00:37:56;2.40;;;1.40;;
74920;SDS011;63483;47.384;8.860;2023-07-29T00:40:22;3.27;;;1.20;;
74920;SDS011;63483;47.384;8.860;2023-07-29T00:42:47;2.63;;;1.60;;
74920;SDS011;63483;47.384;8.860;2023-07-29T00:45:13;4.90;;;1.38;;
74920;SDS011;63483;47.384;8.860;2023-07-29T00:47:39;3.07;;;1.87;;
74920;SDS011;63483;47.384;8.860;2023-07-29T00:50:05;3.60;;;1.80;;
74920;SDS011;63483;47.384;8.860;2023-07-29T00:52:32;2.95;;;1.85;;
74920;SDS011;63483;47.384;8.860;2023-07-29T00:54:57;4.75;;;1.77;;
74920;SDS011;63483;47.384;8.860;2023-07-29T00:57:23;3.20;;;1.80;;
74920;SDS011;63483;47.384;8.860;2023-07-29T00:59:50;2.83;;;1.10;;
74920;SDS011;63483;47.384;8.860;2023-07-29T01:02:16;3.87;;;1.93;;
74920;SDS011;63483;47.384;8.860;2023-07-29T01:04:41;3.92;;;2.00;;
74920;SDS011;63483;47.384;8.860;2023-07-29T01:07:14;2.50;;;1.33;;
74920;SDS011;63483;47.384;8.860;2023-07-29T01:13:01;2.78;;;1.40;;
74920;SDS011;63483;47.384;8.860;2023-07-29T01:15:33;3.13;;;1.90;;
74920;SDS011;63483;47.384;8.860;2023-07-29T01:18:06;3.53;;;1.52;;
74920;SDS011;63483;47.384;8.860;2023-07-29T01:21:08;3.97;;;1.65;;
74920;SDS011;63483;47.384;8.860;2023-07-29T01:23:36;5.03;;;1.60;;
74920;SDS011;63483;47.384;8.860;2023-07-29T01:26:02;4.80;;;1.87;;
74920;SDS011;63483;47.384;8.860;2023-07-29T01:28:28;2.78;;;1.50;;
74920;SDS011;63483;47.384;8.860;2023-07-29T01:31:08;3.75;;;1.45;;
74920;SDS011;63483;47.384;8.860;2023-07-29T01:33:39;3.23;;;2.07;;
74920;SDS011;63483;47.384;8.860;2023-07-29T01:36:13;2.25;;;1.63;;
74920;SDS011;63483;47.384;8.860;2023-07-29T01:38:43;3.08;;;1.83;;
74920;SDS011;63483;47.384;8.860;2023-07-29T01:41:09;4.75;;;1.50;;
74920;SDS011;63483;47.384;8.860;2023-07-29T01:43:36;4.20;;;1.73;;
74920;SDS011;63483;47.384;8.860;2023-07-29T01:46:07;2.28;;;1.83;;
74920;SDS011;63483;47.384;8.860;2023-07-29T01:48:37;2.15;;;1.20;;
74920;SDS011;63483;47.384;8.860;2023-07-29T01:51:02;3.03;;;1.80;;
74920;SDS011;63483;47.384;8.860;2023-07-29T01:53:28;2.50;;;1.65;;
74920;SDS011;63483;47.384;8.860;2023-07-29T01:55:53;3.23;;;1.37;;
74920;SDS011;63483;47.384;8.860;2023-07-29T01:58:18;2.43;;;1.57;;
74920;SDS011;63483;47.384;8.860;2023-07-29T02:00:44;4.47;;;1.60;;
74920;SDS011;63483;47.384;8.860;2023-07-29T02:03:09;2.53;;;1.90;;
74920;SDS011;63483;47.384;8.860;2023-07-29T02:05:34;2.47;;;2.20;;
74920;SDS011;63483;47.384;8.860;2023-07-29T02:08:00;2.65;;;1.67;;
74920;SDS011;63483;47.384;8.860;2023-07-29T02:10:25;2.43;;;1.43;;
74920;SDS011;63483;47.384;8.860;2023-07-29T02:12:51;5.77;;;2.03;;
74920;SDS011;63483;47.384;8.860;2023-07-29T02:15:16;4.03;;;1.50;;
74920;SDS011;63483;47.384;8.860;2023-07-29T02:17:41;3.43;;;2.00;;
74920;SDS011;63483;47.384;8.860;2023-07-29T02:20:07;3.42;;;1.80;;
74920;SDS011;63483;47.384;8.860;2023-07-29T02:22:33;3.20;;;1.83;;
74920;SDS011;63483;47.384;8.860;2023-07-29T02:24:59;2.80;;;1.80;;
74920;SDS011;63483;47.384;8.860;2023-07-29T02:27:24;5.73;;;1.73;;
74920;SDS011;63483;47.384;8.860;2023-07-29T02:29:52;2.30;;;1.17;;
74920;SDS011;63483;47.384;8.860;2023-07-29T02:32:17;2.93;;;1.27;;
74920;SDS011;63483;47.384;8.860;2023-07-29T02:34:42;2.93;;;1.40;;
74920;SDS011;63483;47.384;8.860;2023-07-29T02:37:08;3.03;;;1.50;;
74920;SDS011;63483;47.384;8.860;2023-07-29T02:39:33;2.90;;;1.73;;
74920;SDS011;63483;47.384;8.860;2023-07-29T02:41:58;3.53;;;2.05;;
74920;SDS011;63483;47.384;8.860;2023-07-29T02:44:24;3.17;;;1.70;;
74920;SDS011;63483;47.384;8.860;2023-07-29T02:46:50;2.90;;;2.00;;
74920;SDS011;63483;47.384;8.860;2023-07-29T02:49:17;3.38;;;1.30;;
74920;SDS011;63483;47.384;8.860;2023-07-29T02:51:42;4.47;;;1.80;;
74920;SDS011;63483;47.384;8.860;2023-07-29T02:54:07;4.27;;;2.03;;
74920;SDS011;63483;47.384;8.860;2023-07-29T02:56:33;2.88;;;1.38;;
74920;SDS011;63483;47.384;8.860;2023-07-29T02:58:58;4.70;;;1.83;;
74920;SDS011;63483;47.384;8.860;2023-07-29T03:01:24;3.38;;;1.40;;
74920;SDS011;63483;47.384;8.860;2023-07-29T03:03:50;2.50;;;1.63;;
74920;SDS011;63483;47.384;8.860;2023-07-29T03:06:15;3.37;;;2.00;;
74920;SDS011;63483;47.384;8.860;2023-07-29T03:08:41;3.30;;;1.60;;
74920;SDS011;63483;47.384;8.860;2023-07-29T03:11:07;4.03;;;2.03;;
74920;SDS011;63483;47.384;8.860;2023-07-29T03:13:34;3.22;;;1.92;;
74920;SDS011;63483;47.384;8.860;2023-07-29T03:16:12;3.87;;;2.57;;
74920;SDS011;63483;47.384;8.860;2023-07-29T03:18:39;5.40;;;2.53;;
74920;SDS011;63483;47.384;8.860;2023-07-29T03:21:05;5.30;;;2.27;;
74920;SDS011;63483;47.384;8.860;2023-07-29T03:23:32;3.70;;;2.10;;
74920;SDS011;63483;47.384;8.860;2023-07-29T03:25:58;4.10;;;2.13;;
74920;SDS011;63483;47.384;8.860;2023-07-29T03:28:28;3.65;;;1.98;;
74920;SDS011;63483;47.384;8.860;2023-07-29T03:30:55;3.58;;;2.28;;
74920;SDS011;63483;47.384;8.860;2023-07-29T03:33:21;3.93;;;2.20;;
74920;SDS011;63483;47.384;8.860;2023-07-29T03:35:46;5.00;;;2.43;;
74920;SDS011;63483;47.384;8.860;2023-07-29T03:38:12;5.32;;;2.60;;
74920;SDS011;63483;47.384;8.860;2023-07-29T03:40:38;3.93;;;2.10;;
74920;SDS011;63483;47.384;8.860;2023-07-29T03:43:03;5.38;;;2.47;;
74920;SDS011;63483;47.384;8.860;2023-07-29T03:45:29;4.50;;;2.20;;
74920;SDS011;63483;47.384;8.860;2023-07-29T03:47:54;4.97;;;2.47;;
74920;SDS011;63483;47.384;8.860;2023-07-29T03:50:20;4.03;;;2.37;;
74920;SDS011;63483;47.384;8.860;2023-07-29T03:52:45;5.93;;;2.60;;
74920;SDS011;63483;47.384;8.860;2023-07-29T03:55:11;5.43;;;2.83;;
74920;SDS011;63483;47.384;8.860;2023-07-29T03:57:37;5.30;;;2.27;;
74920;SDS011;63483;47.384;8.860;2023-07-29T04:00:02;5.50;;;2.00;;
74920;SDS011;63483;47.384;8.860;2023-07-29T04:02:28;4.28;;;2.97;;
74920;SDS011;63483;47.384;8.860;2023-07-29T04:04:53;4.47;;;2.57;;
74920;SDS011;63483;47.384;8.860;2023-07-29T04:07:19;5.07;;;2.50;;
74920;SDS011;63483;47.384;8.860;2023-07-29T04:09:44;4.00;;;2.93;;
74920;SDS011;63483;47.384;8.860;2023-07-29T04:12:09;4.38;;;2.28;;
74920;SDS011;63483;47.384;8.860;2023-07-29T04:14:35;4.73;;;2.43;;
74920;SDS011;63483;47.384;8.860;2023-07-29T04:17:00;6.53;;;3.07;;
74920;SDS011;63483;47.384;8.860;2023-07-29T04:19:26;5.73;;;2.40;;
74920;SDS011;63483;47.384;8.860;2023-07-29T04:21:51;5.43;;;2.47;;
74920;SDS011;63483;47.384;8.860;2023-07-29T04:24:16;4.57;;;2.90;;
74920;SDS011;63483;47.384;8.860;2023-07-29T04:26:42;4.23;;;2.30;;
74920;SDS011;63483;47.384;8.860;2023-07-29T04:29:07;5.87;;;2.27;;
74920;SDS011;63483;47.384;8.860;2023-07-29T04:31:32;4.43;;;3.00;;
74920;SDS011;63483;47.384;8.860;2023-07-29T04:33:58;7.67;;;3.60;;
74920;SDS011;63483;47.384;8.860;2023-07-29T04:36:23;4.90;;;2.92;;
74920;SDS011;63483;47.384;8.860;2023-07-29T04:38:49;4.13;;;2.30;;
74920;SDS011;63483;47.384;8.860;2023-07-29T04:41:14;5.03;;;2.77;;
74920;SDS011;63483;47.384;8.860;2023-07-29T04:43:39;4.50;;;3.60;;
74920;SDS011;63483;47.384;8.860;2023-07-29T04:46:07;5.57;;;2.63;;
74920;SDS011;63483;47.384;8.860;2023-07-29T04:48:33;4.40;;;2.75;;
74920;SDS011;63483;47.384;8.860;2023-07-29T04:50:59;5.47;;;3.03;;
74920;SDS011;63483;47.384;8.860;2023-07-29T04:53:24;4.20;;;2.77;;
74920;SDS011;63483;47.384;8.860;2023-07-29T04:55:49;4.40;;;2.97;;
74920;SDS011;63483;47.384;8.860;2023-07-29T04:58:14;4.32;;;2.13;;
74920;SDS011;63483;47.384;8.860;2023-07-29T05:00:40;4.20;;;3.03;;
74920;SDS011;63483;47.384;8.860;2023-07-29T05:03:05;3.37;;;2.47;;
74920;SDS011;63483;47.384;8.860;2023-07-29T05:05:31;4.20;;;2.80;;
74920;SDS011;63483;47.384;8.860;2023-07-29T05:07:57;4.97;;;3.03;;
74920;SDS011;63483;47.384;8.860;2023-07-29T05:10:22;4.03;;;2.73;;
74920;SDS011;63483;47.384;8.860;2023-07-29T05:12:47;5.20;;;3.03;;
74920;SDS011;63483;47.384;8.860;2023-07-29T05:15:13;3.75;;;2.47;;
74920;SDS011;63483;47.384;8.860;2023-07-29T05:17:39;4.67;;;3.27;;
74920;SDS011;63483;47.384;8.860;2023-07-29T05:20:04;4.10;;;2.50;;
74920;SDS011;63483;47.384;8.860;2023-07-29T05:22:30;5.28;;;2.97;;
74920;SDS011;63483;47.384;8.860;2023-07-29T05:24:55;4.20;;;3.00;;
74920;SDS011;63483;47.384;8.860;2023-07-29T05:27:21;5.23;;;2.57;;
74920;SDS011;63483;47.384;8.860;2023-07-29T05:29:46;4.30;;;2.63;;
74920;SDS011;63483;47.384;8.860;2023-07-29T05:32:11;7.00;;;2.90;;
74920;SDS011;63483;47.384;8.860;2023-07-29T05:34:36;4.50;;;2.80;;
74920;SDS011;63483;47.384;8.860;2023-07-29T05:37:02;5.27;;;3.13;;
74920;SDS011;63483;47.384;8.860;2023-07-29T05:39:27;4.03;;;2.80;;
74920;SDS011;63483;47.384;8.860;2023-07-29T05:41:52;4.70;;;3.57;;
74920;SDS011;63483;47.384;8.860;2023-07-29T05:44:18;8.53;;;3.37;;
74920;SDS011;63483;47.384;8.860;2023-07-29T05:46:43;4.43;;;3.50;;
74920;SDS011;63483;47.384;8.860;2023-07-29T05:49:08;4.40;;;3.00;;
74920;SDS011;63483;47.384;8.860;2023-07-29T05:51:34;4.33;;;3.17;;
74920;SDS011;63483;47.384;8.860;2023-07-29T05:53:59;4.57;;;3.30;;
74920;SDS011;63483;47.384;8.860;2023-07-29T05:56:24;4.87;;;3.10;;
74920;SDS011;63483;47.384;8.860;2023-07-29T05:58:49;4.63;;;3.27;;
74920;SDS011;63483;47.384;8.860;2023-07-29T06:01:15;6.77;;;2.83;;
74920;SDS011;63483;47.384;8.860;2023-07-29T06:03:40;3.77;;;2.73;;
74920;SDS011;63483;47.384;8.860;2023-07-29T06:06:05;4.57;;;2.93;;
74920;SDS011;63483;47.384;8.860;2023-07-29T06:08:31;4.40;;;3.30;;
74920;SDS011;63483;47.384;8.860;2023-07-29T06:10:59;4.15;;;2.90;;
74920;SDS011;63483;47.384;8.860;2023-07-29T06:13:24;5.27;;;3.50;;
74920;SDS011;63483;47.384;8.860;2023-07-29T06:15:49;6.90;;;4.43;;
74920;SDS011;63483;47.384;8.860;2023-07-29T06:18:15;6.37;;;3.47;;
74920;SDS011;63483;47.384;8.860;2023-07-29T06:20:40;4.60;;;3.47;;
74920;SDS011;63483;47.384;8.860;2023-07-29T06:23:05;5.60;;;4.00;;
74920;SDS011;63483;47.384;8.860;2023-07-29T06:25:31;4.37;;;2.90;;
74920;SDS011;63483;47.384;8.860;2023-07-29T06:27:56;4.50;;;3.17;;
74920;SDS011;63483;47.384;8.860;2023-07-29T06:30:23;5.07;;;3.23;;
74920;SDS011;63483;47.384;8.860;2023-07-29T06:32:48;4.40;;;3.50;;
74920;SDS011;63483;47.384;8.860;2023-07-29T06:35:13;4.93;;;3.17;;
74920;SDS011;63483;47.384;8.860;2023-07-29T06:37:39;5.70;;;2.70;;
74920;SDS011;63483;47.384;8.860;2023-07-29T06:40:04;4.97;;;3.10;;
74920;SDS011;63483;47.384;8.860;2023-07-29T06:42:30;4.35;;;2.58;;
74920;SDS011;63483;47.384;8.860;2023-07-29T06:44:55;4.20;;;2.90;;
74920;SDS011;63483;47.384;8.860;2023-07-29T06:47:21;4.17;;;3.10;;
74920;SDS011;63483;47.384;8.860;2023-07-29T06:49:46;4.57;;;2.80;;
74920;SDS011;63483;47.384;8.860;2023-07-29T06:52:12;4.00;;;2.90;;
74920;SDS011;63483;47.384;8.860;2023-07-29T06:54:37;4.67;;;2.90;;
74920;SDS011;63483;47.384;8.860;2023-07-29T06:57:03;4.80;;;3.10;;
74920;SDS011;63483;47.384;8.860;2023-07-29T06:59:28;4.57;;;3.10;;
74920;SDS011;63483;47.384;8.860;2023-07-29T07:01:53;5.40;;;3.50;;
74920;SDS011;63483;47.384;8.860;2023-07-29T07:04:19;5.50;;;3.57;;
74920;SDS011;63483;47.384;8.860;2023-07-29T07:06:44;4.47;;;3.45;;
74920;SDS011;63483;47.384;8.860;2023-07-29T07:09:09;6.97;;;2.90;;
74920;SDS011;63483;47.384;8.860;2023-07-29T07:11:35;4.37;;;3.30;;
74920;SDS011;63483;47.384;8.860;2023-07-29T07:14:00;5.27;;;3.37;;
74920;SDS011;63483;47.384;8.860;2023-07-29T07:16:25;6.07;;;3.87;;
74920;SDS011;63483;47.384;8.860;2023-07-29T07:18:51;4.93;;;3.20;;
74920;SDS011;63483;47.384;8.860;2023-07-29T07:21:16;4.80;;;3.38;;
74920;SDS011;63483;47.384;8.860;2023-07-29T07:23:41;4.30;;;3.13;;
74920;SDS011;63483;47.384;8.860;2023-07-29T07:26:07;4.93;;;3.40;;
74920;SDS011;63483;47.384;8.860;2023-07-29T07:28:32;5.43;;;4.00;;
74920;SDS011;63483;47.384;8.860;2023-07-29T07:30:57;5.17;;;4.10;;
74920;SDS011;63483;47.384;8.860;2023-07-29T07:33:24;6.22;;;4.32;;
74920;SDS011;63483;47.384;8.860;2023-07-29T07:35:49;5.70;;;3.50;;
74920;SDS011;63483;47.384;8.860;2023-07-29T07:38:14;5.73;;;4.30;;
74920;SDS011;63483;47.384;8.860;2023-07-29T07:40:40;6.93;;;4.17;;
74920;SDS011;63483;47.384;8.860;2023-07-29T07:43:05;5.88;;;4.18;;
74920;SDS011;63483;47.384;8.860;2023-07-29T07:45:32;5.30;;;3.83;;
74920;SDS011;63483;47.384;8.860;2023-07-29T07:47:57;6.03;;;4.78;;
74920;SDS011;63483;47.384;8.860;2023-07-29T07:50:23;6.30;;;4.77;;
74920;SDS011;63483;47.384;8.860;2023-07-29T07:52:49;6.97;;;5.00;;
74920;SDS011;63483;47.384;8.860;2023-07-29T07:55:14;5.88;;;4.47;;
74920;SDS011;63483;47.384;8.860;2023-07-29T07:57:39;7.23;;;4.97;;
74920;SDS011;63483;47.384;8.860;2023-07-29T08:00:05;8.03;;;5.60;;
74920;SDS011;63483;47.384;8.860;2023-07-29T08:02:31;6.57;;;4.85;;
74920;SDS011;63483;47.384;8.860;2023-07-29T08:04:56;6.53;;;4.53;;
74920;SDS011;63483;47.384;8.860;2023-07-29T08:07:21;6.37;;;4.20;;
74920;SDS011;63483;47.384;8.860;2023-07-29T08:09:46;6.33;;;4.93;;
74920;SDS011;63483;47.384;8.860;2023-07-29T08:12:12;6.87;;;4.20;;
74920;SDS011;63483;47.384;8.860;2023-07-29T08:14:37;6.57;;;4.73;;
74920;SDS011;63483;47.384;8.860;2023-07-29T08:17:02;6.50;;;4.67;;
74920;SDS011;63483;47.384;8.860;2023-07-29T08:19:28;6.93;;;4.70;;
74920;SDS011;63483;47.384;8.860;2023-07-29T08:21:53;7.53;;;4.73;;
74920;SDS011;63483;47.384;8.860;2023-07-29T08:24:18;7.23;;;4.50;;
74920;SDS011;63483;47.384;8.860;2023-07-29T08:26:44;6.63;;;4.37;;
74920;SDS011;63483;47.384;8.860;2023-07-29T08:29:09;6.00;;;4.70;;
74920;SDS011;63483;47.384;8.860;2023-07-29T08:31:34;7.80;;;4.97;;
74920;SDS011;63483;47.384;8.860;2023-07-29T08:34:00;6.23;;;4.53;;
74920;SDS011;63483;47.384;8.860;2023-07-29T08:36:25;6.57;;;4.67;;
74920;SDS011;63483;47.384;8.860;2023-07-29T08:38:51;8.20;;;4.78;;
74920;SDS011;63483;47.384;8.860;2023-07-29T08:41:19;6.53;;;4.23;;
74920;SDS011;63483;47.384;8.860;2023-07-29T08:43:52;6.97;;;4.55;;
74920;SDS011;63483;47.384;8.860;2023-07-29T08:46:21;5.70;;;4.43;;
74920;SDS011;63483;47.384;8.860;2023-07-29T08:48:46;6.53;;;5.25;;
74920;SDS011;63483;47.384;8.860;2023-07-29T08:51:12;5.27;;;3.53;;
74920;SDS011;63483;47.384;8.860;2023-07-29T08:53:38;5.30;;;3.97;;
74920;SDS011;63483;47.384;8.860;2023-07-29T08:56:04;7.43;;;4.38;;
74920;SDS011;63483;47.384;8.860;2023-07-29T08:58:32;6.95;;;4.60;;
74920;SDS011;63483;47.384;8.860;2023-07-29T09:00:58;5.15;;;3.90;;
74920;SDS011;63483;47.384;8.860;2023-07-29T09:03:23;5.30;;;3.73;;
74920;SDS011;63483;47.384;8.860;2023-07-29T09:05:49;5.63;;;4.47;;
74920;SDS011;63483;47.384;8.860;2023-07-29T09:08:15;6.28;;;4.45;;
74920;SDS011;63483;47.384;8.860;2023-07-29T09:10:41;4.80;;;4.10;;
74920;SDS011;63483;47.384;8.860;2023-07-29T09:13:06;5.83;;;4.00;;
74920;SDS011;63483;47.384;8.860;2023-07-29T09:15:33;7.35;;;4.32;;
74920;SDS011;63483;47.384;8.860;2023-07-29T09:18:08;5.68;;;4.40;;
74920;SDS011;63483;47.384;8.860;2023-07-29T09:20:37;5.50;;;4.03;;
74920;SDS011;63483;47.384;8.860;2023-07-29T09:23:03;5.57;;;4.43;;
74920;SDS011;63483;47.384;8.860;2023-07-29T09:25:31;5.35;;;3.70;;
74920;SDS011;63483;47.384;8.860;2023-07-29T09:28:00;5.90;;;4.57;;
74920;SDS011;63483;47.384;8.860;2023-07-29T09:30:26;5.38;;;3.60;;
74920;SDS011;63483;47.384;8.860;2023-07-29T09:32:54;6.23;;;4.07;;
74920;SDS011;63483;47.384;8.860;2023-07-29T09:35:20;5.32;;;4.05;;
74920;SDS011;63483;47.384;8.860;2023-07-29T09:37:46;5.27;;;3.50;;
74920;SDS011;63483;47.384;8.860;2023-07-29T09:40:13;6.43;;;4.07;;
74920;SDS011;63483;47.384;8.860;2023-07-29T09:42:40;7.00;;;4.00;;
74920;SDS011;63483;47.384;8.860;2023-07-29T09:45:14;5.25;;;4.60;;
74920;SDS011;63483;47.384;8.860;2023-07-29T09:47:45;6.83;;;3.90;;
74920;SDS011;63483;47.384;8.860;2023-07-29T09:50:11;6.30;;;4.05;;
74920;SDS011;63483;47.384;8.860;2023-07-29T09:52:37;4.90;;;3.57;;
74920;SDS011;63483;47.384;8.860;2023-07-29T09:55:02;4.57;;;3.80;;
74920;SDS011;63483;47.384;8.860;2023-07-29T09:57:27;5.47;;;3.45;;
74920;SDS011;63483;47.384;8.860;2023-07-29T09:59:56;4.90;;;4.00;;
74920;SDS011;63483;47.384;8.860;2023-07-29T10:02:22;4.75;;;3.75;;
74920;SDS011;63483;47.384;8.860;2023-07-29T10:04:50;5.63;;;4.55;;
74920;SDS011;63483;47.384;8.860;2023-07-29T10:07:17;5.00;;;4.27;;
74920;SDS011;63483;47.384;8.860;2023-07-29T10:09:43;5.68;;;3.80;;
74920;SDS011;63483;47.384;8.860;2023-07-29T10:12:10;5.20;;;3.75;;
74920;SDS011;63483;47.384;8.860;2023-07-29T10:14:36;5.50;;;3.70;;
74920;SDS011;63483;47.384;8.860;2023-07-29T10:17:03;4.63;;;3.45;;
74920;SDS011;63483;47.384;8.860;2023-07-29T10:19:30;5.03;;;3.60;;
74920;SDS011;63483;47.384;8.860;2023-07-29T10:21:57;4.53;;;3.58;;
74920;SDS011;63483;47.384;8.860;2023-07-29T10:24:27;5.32;;;3.63;;
74920;SDS011;63483;47.384;8.860;2023-07-29T10:26:58;4.43;;;3.30;;
74920;SDS011;63483;47.384;8.860;2023-07-29T10:29:28;6.80;;;3.70;;
74920;SDS011;63483;47.384;8.860;2023-07-29T10:31:57;5.22;;;4.00;;
74920;SDS011;63483;47.384;8.860;2023-07-29T10:34:22;6.47;;;3.63;;
74920;SDS011;63483;47.384;8.860;2023-07-29T10:36:49;5.00;;;3.33;;
74920;SDS011;63483;47.384;8.860;2023-07-29T10:39:15;5.65;;;3.72;;
74920;SDS011;63483;47.384;8.860;2023-07-29T10:41:57;5.03;;;3.90;;
74920;SDS011;63483;47.384;8.860;2023-07-29T10:47:11;5.05;;;3.90;;
74920;SDS011;63483;47.384;8.860;2023-07-29T10:49:40;6.05;;;3.88;;
74920;SDS011;63483;47.384;8.860;2023-07-29T10:52:06;5.03;;;3.20;;
74920;SDS011;63483;47.384;8.860;2023-07-29T10:54:31;4.57;;;3.45;;
74920;SDS011;63483;47.384;8.860;2023-07-29T10:57:07;4.00;;;3.42;;
74920;SDS011;63483;47.384;8.860;2023-07-29T10:59:33;4.83;;;3.77;;
74920;SDS011;63483;47.384;8.860;2023-07-29T11:01:59;4.97;;;3.63;;
74920;SDS011;63483;47.384;8.860;2023-07-29T11:04:26;5.40;;;3.90;;
74920;SDS011;63483;47.384;8.860;2023-07-29T11:09:39;4.90;;;4.00;;
74920;SDS011;63483;47.384;8.860;2023-07-29T11:12:37;4.50;;;3.72;;
74920;SDS011;63483;47.384;8.860;2023-07-29T11:15:17;4.30;;;3.78;;
74920;SDS011;63483;47.384;8.860;2023-07-29T11:20:11;4.97;;;3.93;;
74920;SDS011;63483;47.384;8.860;2023-07-29T11:22:38;3.95;;;3.40;;
74920;SDS011;63483;47.384;8.860;2023-07-29T11:25:04;5.38;;;3.20;;
74920;SDS011;63483;47.384;8.860;2023-07-29T11:27:32;4.43;;;3.65;;
74920;SDS011;63483;47.384;8.860;2023-07-29T11:29:58;4.37;;;3.43;;
74920;SDS011;63483;47.384;8.860;2023-07-29T11:32:30;4.82;;;3.60;;
74920;SDS011;63483;47.384;8.860;2023-07-29T11:35:00;5.10;;;3.90;;
74920;SDS011;63483;47.384;8.860;2023-07-29T11:37:26;5.45;;;3.80;;
74920;SDS011;63483;47.384;8.860;2023-07-29T11:39:51;3.80;;;3.20;;
74920;SDS011;63483;47.384;8.860;2023-07-29T11:42:17;4.87;;;3.80;;
74920;SDS011;63483;47.384;8.860;2023-07-29T11:44:42;4.00;;;3.50;;
74920;SDS011;63483;47.384;8.860;2023-07-29T11:47:08;4.17;;;3.70;;
74920;SDS011;63483;47.384;8.860;2023-07-29T11:49:34;4.72;;;3.67;;
74920;SDS011;63483;47.384;8.860;2023-07-29T11:52:01;5.75;;;4.20;;
74920;SDS011;63483;47.384;8.860;2023-07-29T11:54:28;6.20;;;3.67;;
74920;SDS011;63483;47.384;8.860;2023-07-29T11:56:54;6.40;;;4.40;;
74920;SDS011;63483;47.384;8.860;2023-07-29T11:59:20;5.50;;;4.05;;
74920;SDS011;63483;47.384;8.860;2023-07-29T12:01:45;4.83;;;3.83;;
74920;SDS011;63483;47.384;8.860;2023-07-29T12:04:11;5.37;;;3.57;;
74920;SDS011;63483;47.384;8.860;2023-07-29T12:06:37;4.78;;;3.88;;
74920;SDS011;63483;47.384;8.860;2023-07-29T12:09:04;3.90;;;3.47;;
74920;SDS011;63483;47.384;8.860;2023-07-29T12:11:30;3.77;;;2.90;;
74920;SDS011;63483;47.384;8.860;2023-07-29T12:13:55;3.75;;;2.67;;
74920;SDS011;63483;47.384;8.860;2023-07-29T12:16:21;4.00;;;3.10;;
74920;SDS011;63483;47.384;8.860;2023-07-29T12:18:46;5.43;;;2.80;;
74920;SDS011;63483;47.384;8.860;2023-07-29T12:21:13;5.30;;;2.67;;
74920;SDS011;63483;47.384;8.860;2023-07-29T12:23:39;4.10;;;2.67;;
74920;SDS011;63483;47.384;8.860;2023-07-29T12:26:05;4.40;;;2.20;;
74920;SDS011;63483;47.384;8.860;2023-07-29T12:28:30;3.10;;;2.10;;
74920;SDS011;63483;47.384;8.860;2023-07-29T12:30:56;2.58;;;1.77;;
74920;SDS011;63483;47.384;8.860;2023-07-29T12:33:32;3.63;;;2.40;;
74920;SDS011;63483;47.384;8.860;2023-07-29T12:35:58;2.85;;;2.10;;
74920;SDS011;63483;47.384;8.860;2023-07-29T12:38:27;3.45;;;2.20;;
74920;SDS011;63483;47.384;8.860;2023-07-29T12:40:54;3.30;;;2.13;;
74920;SDS011;63483;47.384;8.860;2023-07-29T12:43:20;2.67;;;1.90;;
74920;SDS011;63483;47.384;8.860;2023-07-29T12:45:45;3.87;;;2.20;;
74920;SDS011;63483;47.384;8.860;2023-07-29T12:48:11;2.47;;;1.80;;
74920;SDS011;63483;47.384;8.860;2023-07-29T12:50:36;3.13;;;1.87;;
74920;SDS011;63483;47.384;8.860;2023-07-29T12:53:04;2.83;;;2.13;;
74920;SDS011;63483;47.384;8.860;2023-07-29T12:55:29;3.50;;;2.17;;
74920;SDS011;63483;47.384;8.860;2023-07-29T12:57:55;3.25;;;2.13;;
74920;SDS011;63483;47.384;8.860;2023-07-29T13:00:21;3.80;;;1.93;;
74920;SDS011;63483;47.384;8.860;2023-07-29T13:02:46;3.47;;;2.40;;
74920;SDS011;63483;47.384;8.860;2023-07-29T13:05:11;3.00;;;2.13;;
74920;SDS011;63483;47.384;8.860;2023-07-29T13:07:38;3.47;;;2.40;;
74920;SDS011;63483;47.384;8.860;2023-07-29T13:10:04;3.10;;;2.20;;
74920;SDS011;63483;47.384;8.860;2023-07-29T13:12:30;6.13;;;2.97;;
74920;SDS011;63483;47.384;8.860;2023-07-29T13:14:56;4.90;;;2.60;;
74920;SDS011;63483;47.384;8.860;2023-07-29T13:17:21;2.90;;;1.50;;
74920;SDS011;63483;47.384;8.860;2023-07-29T13:19:47;2.38;;;1.45;;
74920;SDS011;63483;47.384;8.860;2023-07-29T13:22:12;2.60;;;1.70;;
74920;SDS011;63483;47.384;8.860;2023-07-29T13:24:38;2.93;;;1.77;;
74920;SDS011;63483;47.384;8.860;2023-07-29T13:27:03;5.10;;;1.73;;
74920;SDS011;63483;47.384;8.860;2023-07-29T13:29:29;3.63;;;1.40;;
74920;SDS011;63483;47.384;8.860;2023-07-29T13:31:54;3.30;;;1.60;;
74920;SDS011;63483;47.384;8.860;2023-07-29T13:34:20;2.93;;;1.13;;
74920;SDS011;63483;47.384;8.860;2023-07-29T13:36:45;2.47;;;1.40;;
74920;SDS011;63483;47.384;8.860;2023-07-29T13:39:11;2.70;;;1.40;;
74920;SDS011;63483;47.384;8.860;2023-07-29T13:41:36;3.50;;;1.40;;
74920;SDS011;63483;47.384;8.860;2023-07-29T13:44:01;2.77;;;1.20;;
74920;SDS011;63483;47.384;8.860;2023-07-29T13:46:27;3.67;;;1.53;;
74920;SDS011;63483;47.384;8.860;2023-07-29T13:48:52;2.10;;;1.17;;
74920;SDS011;63483;47.384;8.860;2023-07-29T13:51:17;2.30;;;1.10;;
74920;SDS011;63483;47.384;8.860;2023-07-29T13:53:42;3.03;;;1.33;;
74920;SDS011;63483;47.384;8.860;2023-07-29T13:56:08;3.28;;;1.50;;
74920;SDS011;63483;47.384;8.860;2023-07-29T13:58:33;3.43;;;2.07;;
74920;SDS011;63483;47.384;8.860;2023-07-29T14:00:58;2.73;;;1.30;;
74920;SDS011;63483;47.384;8.860;2023-07-29T14:03:24;2.30;;;1.10;;
74920;SDS011;63483;47.384;8.860;2023-07-29T14:05:49;3.13;;;1.33;;
74920;SDS011;63483;47.384;8.860;2023-07-29T14:08:14;2.63;;;1.40;;
74920;SDS011;63483;47.384;8.860;2023-07-29T14:10:40;3.60;;;1.30;;
74920;SDS011;63483;47.384;8.860;2023-07-29T14:13:05;1.90;;;1.27;;
74920;SDS011;63483;47.384;8.860;2023-07-29T14:15:30;2.73;;;1.17;;
74920;SDS011;63483;47.384;8.860;2023-07-29T14:17:57;3.08;;;1.50;;
74920;SDS011;63483;47.384;8.860;2023-07-29T14:20:22;4.05;;;1.98;;
74920;SDS011;63483;47.384;8.860;2023-07-29T14:22:48;4.03;;;1.97;;
74920;SDS011;63483;47.384;8.860;2023-07-29T14:25:14;3.47;;;1.90;;
74920;SDS011;63483;47.384;8.860;2023-07-29T14:27:39;2.65;;;1.58;;
74920;SDS011;63483;47.384;8.860;2023-07-29T14:30:05;2.07;;;1.40;;
74920;SDS011;63483;47.384;8.860;2023-07-29T14:32:31;3.78;;;2.10;;
74920;SDS011;63483;47.384;8.860;2023-07-29T14:34:56;3.07;;;1.70;;
74920;SDS011;63483;47.384;8.860;2023-07-29T14:37:21;4.07;;;2.17;;
74920;SDS011;63483;47.384;8.860;2023-07-29T14:39:47;4.47;;;2.07;;
74920;SDS011;63483;47.384;8.860;2023-07-29T14:42:12;2.77;;;1.73;;
74920;SDS011;63483;47.384;8.860;2023-07-29T14:44:39;3.08;;;1.63;;
74920;SDS011;63483;47.384;8.860;2023-07-29T14:47:05;4.18;;;1.80;;
74920;SDS011;63483;47.384;8.860;2023-07-29T14:49:32;4.35;;;3.05;;
74920;SDS011;63483;47.384;8.860;2023-07-29T14:51:57;15.63;;;9.87;;
74920;SDS011;63483;47.384;8.860;2023-07-29T14:54:22;4.23;;;2.83;;